sensor_id;sensor_type;location;lat;lon;timestamp;pressure;altitude;pressure_sealevel;temperature;humidity
28432;BME280;15664;51.302;7.744;2023-03-24T00:00:40;82943.41;;;-146.98;100.00
28432;BME280;15664;51.302;7.744;2023-03-24T00:03:06;82923.03;;;-146.98;100.00
28432;BME280;15664;51.302;7.744;2023-03-24T00:05:32;82965.78;;;-146.98;100.00
28432;BME280;15664;51.302;7.744;2023-03-24T00:07:57;82955.63;;;-146.98;100.00
28432;BME280;15664;51.302;7.744;2023-03-24T00:10:28;82961.72;;;-146.98;100.00
28432;BME280;15664;51.302;7.744;2023-03-24T00:12:55;82927.09;;;-146.98;100.00
28432;BME280;15664;51.302;7.744;2023-03-24T00:15:23;82963.75;;;-146.98;100.00
28432;BME280;15664;51.302;7.744;2023-03-24T00:17:50;82961.72;;;-146.98;100.00
28432;BME280;15664;51.302;7.744;2023-03-24T00:20:17;82923.03;;;-146.98;100.00
28432;BME280;15664;51.302;7.744;2023-03-24T00:22:52;82900.63;;;-146.98;100.00
28432;BME280;15664;51.302;7.744;2023-03-24T00:25:25;82933.22;;;-146.98;100.00
28432;BME280;15664;51.302;7.744;2023-03-24T00:27:55;82945.44;;;-146.98;100.00
28432;BME280;15664;51.302;7.744;2023-03-24T00:30:22;82929.16;;;-146.98;100.00
28432;BME280;15664;51.302;7.744;2023-03-24T00:32:50;82918.97;;;-146.98;100.00
28432;BME280;15664;51.302;7.744;2023-03-24T00:35:16;82929.16;;;-146.98;100.00
28432;BME280;15664;51.302;7.744;2023-03-24T00:37:43;82941.38;;;-146.98;100.00
28432;BME280;15664;51.302;7.744;2023-03-24T00:40:13;82925.06;;;-146.98;100.00
28432;BME280;15664;51.302;7.744;2023-03-24T00:42:42;82937.28;;;-146.98;100.00
28432;BME280;15664;51.302;7.744;2023-03-24T00:45:12;82941.38;;;-146.98;100.00
28432;BME280;15664;51.302;7.744;2023-03-24T00:47:39;82876.19;;;-146.98;100.00
28432;BME280;15664;51.302;7.744;2023-03-24T00:50:10;82973.94;;;-146.98;100.00
28432;BME280;15664;51.302;7.744;2023-03-24T00:52:36;82939.31;;;-146.98;100.00
28432;BME280;15664;51.302;7.744;2023-03-24T00:55:10;82955.63;;;-146.98;100.00
28432;BME280;15664;51.302;7.744;2023-03-24T00:57:41;82945.44;;;-146.98;100.00
28432;BME280;15664;51.302;7.744;2023-03-24T01:00:20;82943.41;;;-146.98;100.00
28432;BME280;15664;51.302;7.744;2023-03-24T01:02:47;82933.22;;;-146.98;100.00
28432;BME280;15664;51.302;7.744;2023-03-24T01:05:19;82949.50;;;-146.98;100.00
28432;BME280;15664;51.302;7.744;2023-03-24T01:07:45;82933.22;;;-146.98;100.00
28432;BME280;15664;51.302;7.744;2023-03-24T01:10:18;82941.38;;;-146.98;100.00
28432;BME280;15664;51.302;7.744;2023-03-24T01:12:46;82900.63;;;-146.98;100.00
28432;BME280;15664;51.302;7.744;2023-03-24T01:15:15;82923.03;;;-146.98;100.00
28432;BME280;15664;51.302;7.744;2023-03-24T01:17:40;82939.31;;;-146.98;100.00
28432;BME280;15664;51.302;7.744;2023-03-24T01:20:07;82961.72;;;-146.98;100.00
28432;BME280;15664;51.302;7.744;2023-03-24T01:22:38;82900.63;;;-146.98;100.00
28432;BME280;15664;51.302;7.744;2023-03-24T01:25:05;82892.50;;;-146.98;100.00
28432;BME280;15664;51.302;7.744;2023-03-24T01:27:32;82906.75;;;-146.98;100.00
28432;BME280;15664;51.302;7.744;2023-03-24T01:30:01;82892.50;;;-146.98;100.00
28432;BME280;15664;51.302;7.744;2023-03-24T01:32:28;82894.53;;;-146.98;100.00
28432;BME280;15664;51.302;7.744;2023-03-24T01:34:53;82925.06;;;-146.98;100.00
28432;BME280;15664;51.302;7.744;2023-03-24T01:37:19;82894.53;;;-146.98;100.00
28432;BME280;15664;51.302;7.744;2023-03-24T01:39:44;82910.81;;;-146.98;100.00
28432;BME280;15664;51.302;7.744;2023-03-24T01:42:16;82937.28;;;-146.98;100.00
28432;BME280;15664;51.302;7.744;2023-03-24T01:44:45;82949.50;;;-146.98;100.00
28432;BME280;15664;51.302;7.744;2023-03-24T01:47:11;82933.22;;;-146.98;100.00
28432;BME280;15664;51.302;7.744;2023-03-24T01:52:16;82941.38;;;-146.98;100.00
28432;BME280;15664;51.302;7.744;2023-03-24T01:54:46;82918.97;;;-146.98;100.00
28432;BME280;15664;51.302;7.744;2023-03-24T01:57:25;82892.50;;;-146.98;100.00
28432;BME280;15664;51.302;7.744;2023-03-24T01:59:56;82910.81;;;-146.98;100.00
28432;BME280;15664;51.302;7.744;2023-03-24T02:03:07;82927.09;;;-146.98;100.00
28432;BME280;15664;51.302;7.744;2023-03-24T02:05:43;82937.28;;;-146.98;100.00
28432;BME280;15664;51.302;7.744;2023-03-24T02:10:54;82912.84;;;-146.98;100.00
28432;BME280;15664;51.302;7.744;2023-03-24T02:13:23;82876.19;;;-146.98;100.00
28432;BME280;15664;51.302;7.744;2023-03-24T02:16:00;82884.34;;;-146.98;100.00
28432;BME280;15664;51.302;7.744;2023-03-24T02:24:31;82876.19;;;-146.98;100.00
28432;BME280;15664;51.302;7.744;2023-03-24T02:36:16;82872.13;;;-146.98;100.00
28432;BME280;15664;51.302;7.744;2023-03-24T02:41:51;82886.38;;;-146.98;100.00
28432;BME280;15664;51.302;7.744;2023-03-24T02:44:30;82923.03;;;-146.98;100.00
28432;BME280;15664;51.302;7.744;2023-03-24T02:47:02;82886.38;;;-146.98;100.00
28432;BME280;15664;51.302;7.744;2023-03-24T02:49:45;82898.59;;;-146.98;100.00
28432;BME280;15664;51.302;7.744;2023-03-24T02:52:21;82888.41;;;-146.98;100.00
28432;BME280;15664;51.302;7.744;2023-03-24T02:55:00;82866.03;;;-146.98;100.00
28432;BME280;15664;51.302;7.744;2023-03-24T02:57:36;82912.84;;;-146.98;100.00
28432;BME280;15664;51.302;7.744;2023-03-24T03:00:40;82910.81;;;-146.98;100.00
28432;BME280;15664;51.302;7.744;2023-03-24T03:03:22;82929.16;;;-146.98;100.00
28432;BME280;15664;51.302;7.744;2023-03-24T03:05:56;82882.31;;;-146.98;100.00
28432;BME280;15664;51.302;7.744;2023-03-24T03:08:26;82884.34;;;-146.98;100.00
28432;BME280;15664;51.302;7.744;2023-03-24T03:10:55;82914.88;;;-146.98;100.00
28432;BME280;15664;51.302;7.744;2023-03-24T03:13:35;82878.22;;;-146.98;100.00
28432;BME280;15664;51.302;7.744;2023-03-24T03:16:15;82884.34;;;-146.98;100.00
28432;BME280;15664;51.302;7.744;2023-03-24T03:18:52;82898.59;;;-146.98;100.00
28432;BME280;15664;51.302;7.744;2023-03-24T03:21:22;82904.72;;;-146.98;100.00
28432;BME280;15664;51.302;7.744;2023-03-24T03:24:08;82874.16;;;-146.98;100.00
28432;BME280;15664;51.302;7.744;2023-03-24T03:26:35;82904.72;;;-146.98;100.00
28432;BME280;15664;51.302;7.744;2023-03-24T03:29:09;82833.44;;;-146.98;100.00
28432;BME280;15664;51.302;7.744;2023-03-24T03:31:43;82900.63;;;-146.98;100.00
28432;BME280;15664;51.302;7.744;2023-03-24T03:36:56;82847.69;;;-146.98;100.00
28432;BME280;15664;51.302;7.744;2023-03-24T03:39:28;82833.44;;;-146.98;100.00
28432;BME280;15664;51.302;7.744;2023-03-24T03:41:57;82880.28;;;-146.98;100.00
28432;BME280;15664;51.302;7.744;2023-03-24T03:44:24;82849.72;;;-146.98;100.00
28432;BME280;15664;51.302;7.744;2023-03-24T03:46:49;82847.69;;;-146.98;100.00
28432;BME280;15664;51.302;7.744;2023-03-24T03:49:22;82890.44;;;-146.98;100.00
28432;BME280;15664;51.302;7.744;2023-03-24T03:51:50;82841.59;;;-146.98;100.00
28432;BME280;15664;51.302;7.744;2023-03-24T03:54:16;82847.69;;;-146.98;100.00
28432;BME280;15664;51.302;7.744;2023-03-24T03:56:44;82847.69;;;-146.98;100.00
28432;BME280;15664;51.302;7.744;2023-03-24T03:59:28;82839.53;;;-146.98;100.00
28432;BME280;15664;51.302;7.744;2023-03-24T04:01:57;82843.63;;;-146.98;100.00
28432;BME280;15664;51.302;7.744;2023-03-24T04:08:06;82902.66;;;-146.98;100.00
28432;BME280;15664;51.302;7.744;2023-03-24T04:11:12;82876.19;;;-146.98;100.00
28432;BME280;15664;51.302;7.744;2023-03-24T04:19:56;82851.75;;;-146.98;100.00
28432;BME280;15664;51.302;7.744;2023-03-24T04:22:38;82845.66;;;-146.98;100.00
28432;BME280;15664;51.302;7.744;2023-03-24T04:25:47;82870.09;;;-146.98;100.00
28432;BME280;15664;51.302;7.744;2023-03-24T04:28:31;82847.69;;;-146.98;100.00
28432;BME280;15664;51.302;7.744;2023-03-24T04:31:17;82853.81;;;-146.98;100.00
28432;BME280;15664;51.302;7.744;2023-03-24T04:33:54;82811.03;;;-146.98;100.00
28432;BME280;15664;51.302;7.744;2023-03-24T04:36:36;82849.72;;;-146.98;100.00
28432;BME280;15664;51.302;7.744;2023-03-24T04:39:30;82855.84;;;-146.98;100.00
28432;BME280;15664;51.302;7.744;2023-03-24T04:42:06;82855.84;;;-146.98;100.00
28432;BME280;15664;51.302;7.744;2023-03-24T04:44:34;82870.09;;;-146.98;100.00
28432;BME280;15664;51.302;7.744;2023-03-24T04:47:33;82804.94;;;-146.98;100.00
28432;BME280;15664;51.302;7.744;2023-03-24T04:50:13;82837.50;;;-146.98;100.00
28432;BME280;15664;51.302;7.744;2023-03-24T04:52:40;82831.41;;;-146.98;100.00
28432;BME280;15664;51.302;7.744;2023-03-24T04:55:44;82827.34;;;-146.98;100.00
28432;BME280;15664;51.302;7.744;2023-03-24T04:58:12;82847.69;;;-146.98;100.00
28432;BME280;15664;51.302;7.744;2023-03-24T05:00:38;82847.69;;;-146.98;100.00
28432;BME280;15664;51.302;7.744;2023-03-24T05:03:04;82888.41;;;-146.98;100.00
28432;BME280;15664;51.302;7.744;2023-03-24T05:05:29;82845.66;;;-146.98;100.00
28432;BME280;15664;51.302;7.744;2023-03-24T05:07:55;82859.91;;;-146.98;100.00
28432;BME280;15664;51.302;7.744;2023-03-24T05:10:22;82829.38;;;-146.98;100.00
28432;BME280;15664;51.302;7.744;2023-03-24T05:12:53;82866.03;;;-146.98;100.00
28432;BME280;15664;51.302;7.744;2023-03-24T05:15:25;82874.16;;;-146.98;100.00
28432;BME280;15664;51.302;7.744;2023-03-24T05:17:56;82886.38;;;-146.98;100.00
28432;BME280;15664;51.302;7.744;2023-03-24T05:20:24;82870.09;;;-146.98;100.00
28432;BME280;15664;51.302;7.744;2023-03-24T05:22:50;82845.66;;;-146.98;100.00
28432;BME280;15664;51.302;7.744;2023-03-24T05:25:17;82823.25;;;-146.98;100.00
28432;BME280;15664;51.302;7.744;2023-03-24T05:27:43;82906.75;;;-146.98;100.00
28432;BME280;15664;51.302;7.744;2023-03-24T05:30:19;82859.91;;;-146.98;100.00
28432;BME280;15664;51.302;7.744;2023-03-24T05:32:46;82878.22;;;-146.98;100.00
28432;BME280;15664;51.302;7.744;2023-03-24T05:35:11;82914.88;;;-146.98;100.00
28432;BME280;15664;51.302;7.744;2023-03-24T05:37:37;82982.09;;;-146.98;100.00
28432;BME280;15664;51.302;7.744;2023-03-24T05:40:03;82921.00;;;-146.98;100.00
28432;BME280;15664;51.302;7.744;2023-03-24T05:42:39;82886.38;;;-146.98;100.00
28432;BME280;15664;51.302;7.744;2023-03-24T05:45:05;82961.72;;;-146.98;100.00
28432;BME280;15664;51.302;7.744;2023-03-24T05:47:31;82945.44;;;-146.98;100.00
28432;BME280;15664;51.302;7.744;2023-03-24T05:49:57;82933.22;;;-146.98;100.00
28432;BME280;15664;51.302;7.744;2023-03-24T05:52:23;82904.72;;;-146.98;100.00
28432;BME280;15664;51.302;7.744;2023-03-24T05:54:53;82896.56;;;-146.98;100.00
28432;BME280;15664;51.302;7.744;2023-03-24T05:57:22;82941.38;;;-146.98;100.00
28432;BME280;15664;51.302;7.744;2023-03-24T06:00:16;82904.72;;;-146.98;100.00
28432;BME280;15664;51.302;7.744;2023-03-24T06:03:03;82941.38;;;-146.98;100.00
28432;BME280;15664;51.302;7.744;2023-03-24T06:05:35;82947.47;;;-146.98;100.00
28432;BME280;15664;51.302;7.744;2023-03-24T06:08:00;82955.63;;;-146.98;100.00
28432;BME280;15664;51.302;7.744;2023-03-24T06:10:29;82973.94;;;-146.98;100.00
28432;BME280;15664;51.302;7.744;2023-03-24T06:12:56;82906.75;;;-146.98;100.00
28432;BME280;15664;51.302;7.744;2023-03-24T06:15:23;82957.66;;;-146.98;100.00
28432;BME280;15664;51.302;7.744;2023-03-24T06:17:54;82963.75;;;-146.98;100.00
28432;BME280;15664;51.302;7.744;2023-03-24T06:20:31;82937.28;;;-146.98;100.00
28432;BME280;15664;51.302;7.744;2023-03-24T06:23:09;83006.53;;;-146.98;100.00
28432;BME280;15664;51.302;7.744;2023-03-24T06:25:43;83018.75;;;-146.98;100.00
28432;BME280;15664;51.302;7.744;2023-03-24T06:28:16;82951.53;;;-146.98;100.00
28432;BME280;15664;51.302;7.744;2023-03-24T06:30:44;82990.22;;;-146.98;100.00
28432;BME280;15664;51.302;7.744;2023-03-24T06:33:15;83010.59;;;-146.98;100.00
28432;BME280;15664;51.302;7.744;2023-03-24T06:35:42;82967.84;;;-146.98;100.00
28432;BME280;15664;51.302;7.744;2023-03-24T06:38:12;82978.00;;;-146.98;100.00
28432;BME280;15664;51.302;7.744;2023-03-24T06:40:38;82965.78;;;-146.98;100.00
28432;BME280;15664;51.302;7.744;2023-03-24T06:43:04;82994.31;;;-146.98;100.00
28432;BME280;15664;51.302;7.744;2023-03-24T06:45:33;83008.56;;;-146.98;100.00
28432;BME280;15664;51.302;7.744;2023-03-24T06:47:59;82996.34;;;-146.98;100.00
28432;BME280;15664;51.302;7.744;2023-03-24T06:50:24;83014.66;;;-146.98;100.00
28432;BME280;15664;51.302;7.744;2023-03-24T06:52:58;83006.53;;;-146.98;100.00
28432;BME280;15664;51.302;7.744;2023-03-24T06:55:25;83014.66;;;-146.98;98.78
28432;BME280;15664;51.302;7.744;2023-03-24T06:57:52;83051.31;;;-146.98;98.23
28432;BME280;15664;51.302;7.744;2023-03-24T07:00:28;83020.78;;;-146.98;99.65
28432;BME280;15664;51.302;7.744;2023-03-24T07:03:04;83047.25;;;-146.98;98.13
28432;BME280;15664;51.302;7.744;2023-03-24T07:05:30;83047.25;;;-146.98;98.33
28432;BME280;15664;51.302;7.744;2023-03-24T07:07:56;83030.97;;;-146.98;99.38
28432;BME280;15664;51.302;7.744;2023-03-24T07:10:35;83000.41;;;-146.98;98.56
28432;BME280;15664;51.302;7.744;2023-03-24T07:13:01;82953.56;;;-146.98;99.11
28432;BME280;15664;51.302;7.744;2023-03-24T07:15:28;82998.38;;;-146.98;98.54
28432;BME280;15664;51.302;7.744;2023-03-24T07:17:54;83018.75;;;-146.98;99.03
28432;BME280;15664;51.302;7.744;2023-03-24T07:20:40;83026.88;;;-146.98;98.94
28432;BME280;15664;51.302;7.744;2023-03-24T07:23:14;82992.28;;;-146.98;100.00
28432;BME280;15664;51.302;7.744;2023-03-24T07:25:59;83012.63;;;-146.98;100.00
28432;BME280;15664;51.302;7.744;2023-03-24T07:28:48;83006.53;;;-146.98;100.00
28432;BME280;15664;51.302;7.744;2023-03-24T07:31:24;82986.16;;;-146.98;100.00
28432;BME280;15664;51.302;7.744;2023-03-24T07:33:56;83055.41;;;-146.98;98.06
28432;BME280;15664;51.302;7.744;2023-03-24T07:36:22;83020.78;;;-146.98;98.85
28432;BME280;15664;51.302;7.744;2023-03-24T07:38:47;83026.88;;;-146.98;99.16
28432;BME280;15664;51.302;7.744;2023-03-24T07:41:21;83022.81;;;-146.98;97.42
28432;BME280;15664;51.302;7.744;2023-03-24T07:43:54;83035.03;;;-146.98;97.46
28432;BME280;15664;51.302;7.744;2023-03-24T07:46:24;83069.66;;;-146.98;97.29
28432;BME280;15664;51.302;7.744;2023-03-24T07:48:50;83063.53;;;-146.98;97.84
28432;BME280;15664;51.302;7.744;2023-03-24T07:51:17;83118.53;;;-146.98;96.14
28432;BME280;15664;51.302;7.744;2023-03-24T07:53:49;83051.31;;;-146.98;96.41
28432;BME280;15664;51.302;7.744;2023-03-24T07:56:30;83098.16;;;-146.98;95.04
28432;BME280;15664;51.302;7.744;2023-03-24T07:58:58;83063.53;;;-146.98;95.84
28432;BME280;15664;51.302;7.744;2023-03-24T08:01:44;83018.75;;;-146.98;96.45
28432;BME280;15664;51.302;7.744;2023-03-24T08:04:12;83104.25;;;-146.98;96.91
28432;BME280;15664;51.302;7.744;2023-03-24T08:07:04;82986.16;;;-146.98;97.14
28432;BME280;15664;51.302;7.744;2023-03-24T08:09:30;83018.75;;;-146.98;98.54
28432;BME280;15664;51.302;7.744;2023-03-24T08:11:55;83067.63;;;-146.98;97.22
28432;BME280;15664;51.302;7.744;2023-03-24T08:14:21;83051.31;;;-146.98;96.48
28432;BME280;15664;51.302;7.744;2023-03-24T08:16:46;83030.97;;;-146.98;97.62
28432;BME280;15664;51.302;7.744;2023-03-24T08:19:11;83022.81;;;-146.98;99.19
28432;BME280;15664;51.302;7.744;2023-03-24T08:21:37;83096.13;;;-146.98;98.45
28432;BME280;15664;51.302;7.744;2023-03-24T08:24:03;83033.00;;;-146.98;98.12
28432;BME280;15664;51.302;7.744;2023-03-24T08:26:28;82978.00;;;-146.98;98.38
28432;BME280;15664;51.302;7.744;2023-03-24T08:28:55;82998.38;;;-146.98;96.89
28432;BME280;15664;51.302;7.744;2023-03-24T08:31:21;82945.44;;;-146.98;96.59
28432;BME280;15664;51.302;7.744;2023-03-24T08:33:46;82941.38;;;-146.98;95.87
28432;BME280;15664;51.302;7.744;2023-03-24T08:36:12;82965.78;;;-146.98;94.79
28432;BME280;15664;51.302;7.744;2023-03-24T08:38:37;82973.94;;;-146.98;94.56
28432;BME280;15664;51.302;7.744;2023-03-24T08:41:05;82929.16;;;-146.98;92.77
28432;BME280;15664;51.302;7.744;2023-03-24T08:43:35;82902.66;;;-146.98;93.75
28432;BME280;15664;51.302;7.744;2023-03-24T08:46:02;82929.16;;;-146.98;92.73
28432;BME280;15664;51.302;7.744;2023-03-24T08:48:28;82910.81;;;-146.98;93.98
28432;BME280;15664;51.302;7.744;2023-03-24T08:50:54;82937.28;;;-146.98;92.03
28432;BME280;15664;51.302;7.744;2023-03-24T08:53:20;82849.72;;;-146.98;91.04
28432;BME280;15664;51.302;7.744;2023-03-24T08:55:46;82849.72;;;-146.98;88.63
28432;BME280;15664;51.302;7.744;2023-03-24T08:58:14;82792.72;;;-146.98;85.69
28432;BME280;15664;51.302;7.744;2023-03-24T09:00:40;82774.38;;;-146.98;84.67
28432;BME280;15664;51.302;7.744;2023-03-24T09:03:06;82745.88;;;-146.98;83.16
28432;BME280;15664;51.302;7.744;2023-03-24T09:05:31;82666.47;;;-146.98;81.62
28432;BME280;15664;51.302;7.744;2023-03-24T09:07:57;82672.56;;;-146.98;80.75
28432;BME280;15664;51.302;7.744;2023-03-24T09:10:25;82717.38;;;-146.98;80.52
28432;BME280;15664;51.302;7.744;2023-03-24T09:12:50;82778.47;;;-146.98;82.09
28432;BME280;15664;51.302;7.744;2023-03-24T09:15:16;82741.81;;;-146.98;80.95
28432;BME280;15664;51.302;7.744;2023-03-24T09:17:42;82721.44;;;-146.98;79.58
28432;BME280;15664;51.302;7.744;2023-03-24T09:20:11;82668.50;;;-146.98;80.25
28432;BME280;15664;51.302;7.744;2023-03-24T09:22:46;82637.97;;;-146.98;78.08
28432;BME280;15664;51.302;7.744;2023-03-24T09:25:15;82621.66;;;-146.98;76.50
28432;BME280;15664;51.302;7.744;2023-03-24T09:27:41;82603.34;;;-146.98;76.15
28432;BME280;15664;51.302;7.744;2023-03-24T09:30:07;82654.25;;;-146.98;76.37
28432;BME280;15664;51.302;7.744;2023-03-24T09:32:33;82727.56;;;-146.98;76.96
28432;BME280;15664;51.302;7.744;2023-03-24T09:34:59;82804.94;;;-146.98;75.87
28432;BME280;15664;51.302;7.744;2023-03-24T09:37:32;82853.81;;;-146.98;78.41
28432;BME280;15664;51.302;7.744;2023-03-24T09:39:57;82829.38;;;-146.98;77.11
28432;BME280;15664;51.302;7.744;2023-03-24T09:42:25;82778.47;;;-146.98;77.83
28432;BME280;15664;51.302;7.744;2023-03-24T09:44:54;82745.88;;;-146.98;76.17
28432;BME280;15664;51.302;7.744;2023-03-24T09:47:30;82725.53;;;-146.98;74.98
28432;BME280;15664;51.302;7.744;2023-03-24T09:50:06;82650.19;;;-146.98;69.96
28432;BME280;15664;51.302;7.744;2023-03-24T09:52:37;82692.94;;;-146.98;70.79
28432;BME280;15664;51.302;7.744;2023-03-24T09:55:03;82735.69;;;-146.98;73.62
28432;BME280;15664;51.302;7.744;2023-03-24T09:57:38;82688.88;;;-146.98;72.59
28432;BME280;15664;51.302;7.744;2023-03-24T10:00:14;82733.66;;;-146.98;72.13
28432;BME280;15664;51.302;7.744;2023-03-24T10:02:41;82617.59;;;-146.98;70.49
28432;BME280;15664;51.302;7.744;2023-03-24T10:05:15;82570.78;;;-146.98;69.29
28432;BME280;15664;51.302;7.744;2023-03-24T10:07:46;82688.88;;;-146.98;70.56
28432;BME280;15664;51.302;7.744;2023-03-24T10:10:32;82705.16;;;-146.98;70.91
28432;BME280;15664;51.302;7.744;2023-03-24T10:13:17;82650.19;;;-146.98;71.47
28432;BME280;15664;51.302;7.744;2023-03-24T10:15:52;82591.13;;;-146.98;67.29
28432;BME280;15664;51.302;7.744;2023-03-24T10:18:35;82546.34;;;-146.98;65.80
28432;BME280;15664;51.302;7.744;2023-03-24T10:21:26;82538.19;;;-146.98;65.33
28432;BME280;15664;51.302;7.744;2023-03-24T10:24:17;82603.34;;;-146.98;66.02
28432;BME280;15664;51.302;7.744;2023-03-24T10:26:58;82603.34;;;-146.98;66.02
28432;BME280;15664;51.302;7.744;2023-03-24T10:29:31;82654.25;;;-146.98;66.99
28432;BME280;15664;51.302;7.744;2023-03-24T10:32:04;82570.78;;;-146.98;64.12
28432;BME280;15664;51.302;7.744;2023-03-24T10:34:32;82619.63;;;-146.98;63.75
28432;BME280;15664;51.302;7.744;2023-03-24T10:37:01;82615.56;;;-146.98;63.83
28432;BME280;15664;51.302;7.744;2023-03-24T10:39:28;82627.78;;;-146.98;64.29
28432;BME280;15664;51.302;7.744;2023-03-24T10:41:56;82674.63;;;-146.98;65.11
28432;BME280;15664;51.302;7.744;2023-03-24T10:44:22;82680.72;;;-146.98;66.24
28432;BME280;15664;51.302;7.744;2023-03-24T10:46:54;82717.38;;;-146.98;66.74
28432;BME280;15664;51.302;7.744;2023-03-24T10:49:22;82741.81;;;-146.98;69.24
28432;BME280;15664;51.302;7.744;2023-03-24T10:51:50;82697.00;;;-146.98;68.21
28432;BME280;15664;51.302;7.744;2023-03-24T10:54:26;82717.38;;;-146.98;68.39
28432;BME280;15664;51.302;7.744;2023-03-24T10:59:51;82758.09;;;-146.98;69.06
28432;BME280;15664;51.302;7.744;2023-03-24T11:02:40;82806.97;;;-146.98;69.94
28432;BME280;15664;51.302;7.744;2023-03-24T11:05:19;82809.00;;;-146.98;70.91
28432;BME280;15664;51.302;7.744;2023-03-24T11:07:49;82811.03;;;-146.98;71.61
28432;BME280;15664;51.302;7.744;2023-03-24T11:10:23;82815.13;;;-146.98;69.39
28432;BME280;15664;51.302;7.744;2023-03-24T11:15:20;82839.53;;;-146.98;70.18
28432;BME280;15664;51.302;7.744;2023-03-24T11:17:52;82790.69;;;-146.98;70.21
28432;BME280;15664;51.302;7.744;2023-03-24T11:20:24;82853.81;;;-146.98;70.30
28432;BME280;15664;51.302;7.744;2023-03-24T11:23:10;82784.56;;;-146.98;70.42
28432;BME280;15664;51.302;7.744;2023-03-24T11:25:40;82662.41;;;-146.98;65.86
28432;BME280;15664;51.302;7.744;2023-03-24T11:28:14;82599.28;;;-146.98;62.96
28432;BME280;15664;51.302;7.744;2023-03-24T11:30:46;82464.88;;;-146.98;60.47
28432;BME280;15664;51.302;7.744;2023-03-24T11:33:21;82354.94;;;-146.98;56.42
28432;BME280;15664;51.302;7.744;2023-03-24T11:35:47;82385.50;;;-146.98;52.45
28432;BME280;15664;51.302;7.744;2023-03-24T11:38:16;82497.47;;;-146.98;52.73
28432;BME280;15664;51.302;7.744;2023-03-24T11:40:56;82560.59;;;-146.98;57.00
28432;BME280;15664;51.302;7.744;2023-03-24T11:43:27;82507.66;;;-146.98;55.39
28432;BME280;15664;51.302;7.744;2023-03-24T11:45:59;82532.09;;;-146.98;55.76
28432;BME280;15664;51.302;7.744;2023-03-24T11:48:37;82558.56;;;-146.98;55.10
28432;BME280;15664;51.302;7.744;2023-03-24T11:51:04;82570.78;;;-146.98;56.78
28432;BME280;15664;51.302;7.744;2023-03-24T11:53:50;82640.00;;;-146.98;58.79
28432;BME280;15664;51.302;7.744;2023-03-24T11:56:33;82729.59;;;-146.98;58.78
28432;BME280;15664;51.302;7.744;2023-03-24T12:07:32;82591.13;;;-146.98;57.16
28432;BME280;15664;51.302;7.744;2023-03-24T12:10:24;82603.34;;;-146.98;57.64
28432;BME280;15664;51.302;7.744;2023-03-24T12:15:31;82387.53;;;-146.98;54.27
28432;BME280;15664;51.302;7.744;2023-03-24T12:20:51;82346.81;;;-146.98;52.11
28432;BME280;15664;51.302;7.744;2023-03-24T12:23:28;82297.94;;;-146.98;51.62
28432;BME280;15664;51.302;7.744;2023-03-24T12:28:54;82346.81;;;-146.98;51.48
28432;BME280;15664;51.302;7.744;2023-03-24T12:31:31;82383.44;;;-146.98;51.63
28432;BME280;15664;51.302;7.744;2023-03-24T12:37:02;82367.16;;;-146.98;51.61
28432;BME280;15664;51.302;7.744;2023-03-24T12:39:33;82471.00;;;-146.98;53.58
28432;BME280;15664;51.302;7.744;2023-03-24T12:42:09;82534.13;;;-146.98;53.74
28432;BME280;15664;51.302;7.744;2023-03-24T12:50:34;82220.56;;;-146.98;49.88
28432;BME280;15664;51.302;7.744;2023-03-24T12:53:08;82350.88;;;-146.98;49.69
28432;BME280;15664;51.302;7.744;2023-03-24T12:58:49;82371.22;;;-146.98;50.88
28432;BME280;15664;51.302;7.744;2023-03-24T13:07:07;82454.72;;;-146.98;52.98
28432;BME280;15664;51.302;7.744;2023-03-24T13:09:54;82365.13;;;-146.98;50.39
28432;BME280;15664;51.302;7.744;2023-03-24T13:12:53;82302.00;;;-146.98;49.38
28432;BME280;15664;51.302;7.744;2023-03-24T13:15:24;82291.84;;;-146.98;48.23
28432;BME280;15664;51.302;7.744;2023-03-24T13:18:04;82387.53;;;-146.98;49.83
28432;BME280;15664;51.302;7.744;2023-03-24T13:20:50;82428.25;;;-146.98;52.88
28432;BME280;15664;51.302;7.744;2023-03-24T13:29:03;82240.94;;;-146.98;50.21
28432;BME280;15664;51.302;7.744;2023-03-24T13:31:40;82016.97;;;-146.98;46.69
28432;BME280;15664;51.302;7.744;2023-03-24T13:34:27;82122.84;;;-146.98;46.83
28432;BME280;15664;51.302;7.744;2023-03-24T13:37:04;82214.47;;;-146.98;46.47
28432;BME280;15664;51.302;7.744;2023-03-24T13:39:33;82328.47;;;-146.98;48.96
28432;BME280;15664;51.302;7.744;2023-03-24T13:41:59;82397.69;;;-146.98;49.20
28432;BME280;15664;51.302;7.744;2023-03-24T13:44:38;82383.44;;;-146.98;50.14
28432;BME280;15664;51.302;7.744;2023-03-24T13:47:13;82399.75;;;-146.98;49.96
28432;BME280;15664;51.302;7.744;2023-03-24T13:49:41;82448.59;;;-146.98;51.80
28432;BME280;15664;51.302;7.744;2023-03-24T13:52:36;82485.25;;;-146.98;51.31
28432;BME280;15664;51.302;7.744;2023-03-24T13:55:10;82450.63;;;-146.98;50.13
28432;BME280;15664;51.302;7.744;2023-03-24T13:57:40;82462.84;;;-146.98;49.40
28432;BME280;15664;51.302;7.744;2023-03-24T14:05:10;82399.75;;;-146.98;48.51
28432;BME280;15664;51.302;7.744;2023-03-24T14:10:26;82188.00;;;-146.98;45.54
28432;BME280;15664;51.302;7.744;2023-03-24T14:15:49;82122.84;;;-146.98;43.98
28432;BME280;15664;51.302;7.744;2023-03-24T14:23:37;82171.72;;;-146.98;43.99
28432;BME280;15664;51.302;7.744;2023-03-24T14:26:07;82139.13;;;-146.98;42.31
28432;BME280;15664;51.302;7.744;2023-03-24T14:28:39;82192.06;;;-146.98;42.74
28432;BME280;15664;51.302;7.744;2023-03-24T14:31:21;82249.06;;;-146.98;44.04
28432;BME280;15664;51.302;7.744;2023-03-24T14:36:19;82363.09;;;-146.98;46.63
28432;BME280;15664;51.302;7.744;2023-03-24T14:38:49;82299.97;;;-146.98;46.05
28432;BME280;15664;51.302;7.744;2023-03-24T14:41:26;82185.97;;;-146.98;44.57